Wednesday, September 19, 2018, 3:14 AM GMT
Back to Local

CYRJ, Roberval, Que.

Location: , , Canada Lat: 48.517
Local Time: 3:14 AM GMT ( 3:14 GMT) Lon: -72.267
Time Zone: GMT Elev: 587 ft

Show me the last for .
Show Coded

Time T Td Feel RH Dir Speed Gust Alt SLP Vis Weather Sky Remarks
2018-09-19 03:00 46 43 42 87 120° 9 - 29.97 29.99 25 OVC014 None
2018-09-19 02:49 46 43 44 87 140° 6 - 29.97 29.99 20 OVC014 None
2018-09-19 02:00 46 45 39 93 120° 10 18 29.97 29.99 12 -DZRA OVC012 None
2018-09-19 01:31 48 45 41 87 110° 8 20 29.98 30.00 25 -RA OVC015 None
2018-09-19 01:00 48 45 41 87 110° 10 22 29.97 29.99 25 OVC014 None
2018-09-19 00:34 48 45 44 87 110° 9 - 29.97 29.99 25 OVC014 None
2018-09-19 00:00 50 45 47 81 120° 8 - 29.96 29.98 25 OVC018 None
2018-09-18 23:35 48 46 46 93 140° 6 - 29.96 29.98 25 -RA OVC011 None
2018-09-18 23:00 48 46 46 93 120° 6 - 29.95 29.97 20 -DZRA OVC015 None
2018-09-18 22:50 48 46 46 93 130° 6 - 29.95 29.97 25 -RA OVC012 None
2018-09-18 22:00 50 46 47 87 110° 7 - 29.93 29.95 25 -RA OVC018 None
2018-09-18 21:45 50 45 48 81 120° 6 - 29.93 29.95 25 -RA OVC016 None
2018-09-18 21:00 50 45 47 81 110° 8 - 29.92 29.94 25 OVC019 None
2018-09-18 20:00 50 46 47 87 110° 7 - 29.90 29.91 25 OVC016 None
2018-09-18 19:00 52 46 - 81 110° 7 - 29.91 29.92 25 OVC015 None
2018-09-18 18:00 52 48 - 87 110° 8 18 29.89 29.91 25 BKN013 OVC030 None
2018-09-18 17:41 50 48 46 93 120° 9 - 29.89 29.91 25 BKN011 OVC030 None
2018-09-18 17:00 50 48 44 93 90° 8 17 29.89 29.90 12 -DZ OVC011 None
2018-09-18 16:25 50 48 44 93 100° 10 20 29.89 29.90 6 BR FEW005 OVC014 None
2018-09-18 16:00 50 48 44 93 90° 10 17 29.88 29.90 4 -DZ BR OVC007 None
2018-09-18 15:48 50 50 46 100 330° 12 - 29.88 29.89 2 -RA BR OVC004 None
2018-09-18 15:38 50 50 45 100 320° 13 - 29.88 29.89 2 +DZ BR OVC008 None
2018-09-18 15:00 48 48 45 100 330° 8 - 29.88 29.89 1 +DZ BR OVC004 None
2018-09-18 14:23 48 46 42 93 320° 12 17 29.87 29.89 1 +DZ BR OVC004 None
2018-09-18 14:00 48 48 42 100 320° 10 18 29.86 29.88 1 -DZ BR OVC004 None
2018-09-18 13:00 46 46 40 100 320° 15 - 29.85 29.86 1 -DZ BR OVC007 None
2018-09-18 12:20 48 46 42 93 320° 13 18 29.85 29.86 2 -DZ BR OVC005 None
2018-09-18 12:00 48 46 41 93 320° 14 21 29.84 29.85 4 -DZ BR OVC007 None
2018-09-18 11:00 48 46 42 93 320° 18 - 29.82 29.83 25 BKN011 BKN020 None
2018-09-18 10:26 50 46 45 87 310° 14 - 29.80 29.81 25 BKN011 BKN020 None
2018-09-18 10:00 50 48 43 93 310° 15 23 29.79 29.80 25 BKN008 OVC017 None
2018-09-18 09:17 52 50 - 93 310° 18 29 29.76 29.76 25 OVC008 None
2018-09-18 09:00 52 52 - 100 310° 18 24 29.75 29.76 20 -SHRA OVC010 None
2018-09-18 08:24 55 54 - 93 320° 18 35 29.73 29.73 12 -SHRA OVC010 None
2018-09-18 08:00 59 57 - 93 320° 15 23 29.71 29.72 8 SHRA OVC005 None
2018-09-18 07:30 63 61 - 93 340° 18 30 29.70 29.70 5 SHRA OVC005 Pressure rising rapidly
2018-09-18 07:00 64 63 - 93 300° 7 - 29.67 29.67 25 OVC017 Pressure rising rapidly
2018-09-18 06:21 64 64 - 100 330° 6 - 29.65 29.66 20 OVC035 None
2018-09-18 06:00 63 63 - 100 20° 5 - 29.64 29.65 25 -SHRA BKN045 OVC110 None
2018-09-18 05:04 64 63 - 93 Variable 2 - 29.66 29.67 12 -SHRA FEW035 OVC110 None
2018-09-18 05:00 64 64 - 100 Variable 2 - 29.67 29.67 12 +SHRA BKN035 OVC110 None
2018-09-18 04:37 63 63 - 100 240° 3 - 29.68 29.69 12 +SHRA BKN030 OVC060CB None
2018-09-18 04:34 63 63 - 100 Variable 2 - 29.68 29.68 20 BKN040 OVC060CB None
2018-09-18 04:00 63 63 - 100 120° 5 - 29.68 29.69 3 -TSRA OVC060CB Lighting in the vicinity
2018-09-18 03:32 64 63 - 93 210° 6 - 29.70 29.70 2 +TSRA OVC060CB Lighting in the vicinity

Support USWX by starting your Amazon purchase here.